createdAt,value
2017-01-12T00:00:37.004Z,0
2017-01-12T00:01:17.572Z,0
2017-01-12T00:01:58.063Z,0
2017-01-12T00:02:38.639Z,0
2017-01-12T00:03:19.192Z,0
2017-01-12T00:03:59.722Z,0
2017-01-12T00:04:40.250Z,0
2017-01-12T00:05:20.804Z,0
2017-01-12T00:06:01.371Z,0
2017-01-12T00:06:41.908Z,0
2017-01-12T00:07:22.393Z,0
2017-01-12T00:08:02.945Z,0
2017-01-12T00:08:43.431Z,0
2017-01-12T00:09:24.001Z,0
2017-01-12T00:10:04.564Z,0
2017-01-12T00:10:45.082Z,0
2017-01-12T00:11:25.607Z,0
2017-01-12T00:12:06.182Z,0
2017-01-12T00:12:46.700Z,0
2017-01-12T00:13:27.234Z,0
2017-01-12T00:14:07.778Z,0
2017-01-12T00:14:48.275Z,0
2017-01-12T00:15:28.824Z,0
2017-01-12T00:16:09.349Z,0
2017-01-12T00:16:49.897Z,0
2017-01-12T00:17:30.408Z,0
2017-01-12T00:18:10.971Z,0
2017-01-12T00:20:25.650Z,0
2017-01-12T00:21:06.285Z,0
2017-01-12T00:21:46.812Z,0
2017-01-12T00:22:27.327Z,0
2017-01-12T00:23:07.877Z,0
2017-01-12T00:23:48.465Z,0
2017-01-12T00:24:28.976Z,0
2017-01-12T00:25:09.467Z,0
2017-01-12T00:25:49.995Z,0
2017-01-12T00:26:30.529Z,0
2017-01-12T00:27:11.068Z,0
2017-01-12T00:27:51.654Z,0
2017-01-12T00:28:32.146Z,0
2017-01-12T00:29:12.663Z,0
2017-01-12T00:29:53.184Z,0
2017-01-12T00:30:33.719Z,0
2017-01-12T00:31:14.238Z,0
2017-01-12T00:31:54.757Z,0
2017-01-12T00:32:35.295Z,0
2017-01-12T00:33:15.821Z,0
2017-01-12T00:33:56.333Z,0
2017-01-12T00:34:36.879Z,0
2017-01-12T00:35:17.369Z,0
2017-01-12T00:35:57.912Z,0
2017-01-12T00:36:38.422Z,0
2017-01-12T00:37:18.987Z,0
2017-01-12T00:37:59.521Z,0
2017-01-12T00:38:40.044Z,0
2017-01-12T00:39:20.567Z,0
2017-01-12T00:40:01.153Z,0
2017-01-12T00:40:41.631Z,0
2017-01-12T00:41:22.193Z,0
2017-01-12T00:42:02.743Z,0
2017-01-12T00:42:43.313Z,0
2017-01-12T00:43:23.853Z,0
2017-01-12T00:44:04.384Z,0
2017-01-12T00:44:44.853Z,0
2017-01-12T00:45:25.383Z,0
2017-01-12T00:46:05.955Z,0
2017-01-12T00:46:46.462Z,0
2017-01-12T00:47:26.999Z,0
2017-01-12T00:48:07.539Z,0
2017-01-12T00:48:48.093Z,0
2017-01-12T00:49:28.588Z,0
2017-01-12T00:50:09.103Z,0
2017-01-12T00:50:49.716Z,0
2017-01-12T00:51:30.214Z,0
2017-01-12T00:52:10.735Z,0
2017-01-12T00:52:51.275Z,0
2017-01-12T00:53:31.847Z,0
2017-01-12T00:54:12.357Z,0
2017-01-12T00:54:52.860Z,0
2017-01-12T00:55:33.410Z,0
2017-01-12T00:56:13.943Z,0
2017-01-12T00:56:54.486Z,0
2017-01-12T00:57:35.015Z,0
2017-01-12T00:58:15.548Z,0
2017-01-12T00:58:56.068Z,0
2017-01-12T00:59:36.596Z,0
2017-01-12T01:00:17.075Z,0
2017-01-12T01:00:57.645Z,0
2017-01-12T01:01:38.190Z,0
2017-01-12T01:02:18.686Z,0
2017-01-12T01:02:59.209Z,0
2017-01-12T01:03:39.753Z,0
2017-01-12T01:04:20.276Z,0
2017-01-12T01:05:00.846Z,0
2017-01-12T01:05:41.377Z,0
2017-01-12T01:06:21.873Z,0
2017-01-12T01:07:02.399Z,0
2017-01-12T01:07:42.979Z,0
2017-01-12T01:08:23.527Z,0
2017-01-12T01:09:04.043Z,0
2017-01-12T01:09:44.613Z,0
2017-01-12T01:10:25.145Z,0
2017-01-12T01:11:05.668Z,0
2017-01-12T01:11:46.163Z,0
2017-01-12T01:12:26.712Z,0
2017-01-12T01:13:07.240Z,0
2017-01-12T01:13:47.806Z,0
2017-01-12T01:14:28.354Z,0
2017-01-12T01:15:08.895Z,0
2017-01-12T01:15:49.427Z,0
2017-01-12T01:19:37.056Z,0
2017-01-12T01:20:17.582Z,0
2017-01-12T01:20:58.139Z,0
2017-01-12T01:21:38.671Z,0
2017-01-12T01:22:19.212Z,0
2017-01-12T01:22:59.776Z,0
2017-01-12T01:23:40.327Z,0
2017-01-12T01:24:20.817Z,0
2017-01-12T01:25:01.353Z,0
2017-01-12T01:25:41.896Z,0
2017-01-12T01:26:22.438Z,0
2017-01-12T01:27:03.026Z,0
2017-01-12T01:27:43.574Z,0
2017-01-12T01:28:24.159Z,0
2017-01-12T01:29:04.702Z,0
2017-01-12T01:29:45.283Z,0
2017-01-12T01:30:25.881Z,0
2017-01-12T01:31:06.398Z,0
2017-01-12T01:31:46.880Z,0
2017-01-12T01:32:27.425Z,0
2017-01-12T01:33:07.978Z,0
2017-01-12T01:33:48.493Z,0
2017-01-12T01:34:29.054Z,0
2017-01-12T01:35:09.567Z,0
2017-01-12T01:35:50.153Z,0
2017-01-12T01:36:30.716Z,0
2017-01-12T01:37:11.247Z,0
2017-01-12T01:37:51.815Z,0
2017-01-12T01:38:32.381Z,0
2017-01-12T01:39:12.884Z,0
2017-01-12T01:39:53.432Z,0
2017-01-12T01:40:33.962Z,0
2017-01-12T01:41:14.559Z,0
2017-01-12T01:41:55.104Z,0
2017-01-12T01:42:35.708Z,0
2017-01-12T01:43:16.250Z,0
2017-01-12T01:43:56.779Z,0
2017-01-12T01:44:37.353Z,0
2017-01-12T01:45:17.915Z,0
2017-01-12T01:45:58.430Z,0
2017-01-12T01:46:38.978Z,0
2017-01-12T01:47:19.533Z,0
2017-01-12T01:48:00.057Z,0
2017-01-12T01:48:40.666Z,0
2017-01-12T01:49:21.254Z,0
2017-01-12T01:50:01.738Z,0
2017-01-12T01:50:42.295Z,0
2017-01-12T01:51:22.844Z,0
2017-01-12T01:52:03.393Z,0
2017-01-12T01:52:43.921Z,0
2017-01-12T01:53:24.443Z,0
2017-01-12T01:54:04.983Z,0
2017-01-12T01:54:45.590Z,0
2017-01-12T01:55:26.104Z,0
2017-01-12T01:56:06.682Z,0
2017-01-12T01:56:47.206Z,0
2017-01-12T01:57:27.755Z,0
2017-01-12T01:58:08.342Z,0
2017-01-12T01:58:48.918Z,0
2017-01-12T01:59:29.475Z,0
2017-01-12T02:00:11.838Z,0
2017-01-12T02:00:52.386Z,0
2017-01-12T02:01:32.973Z,0
2017-01-12T02:02:13.530Z,0
2017-01-12T02:02:54.079Z,0
2017-01-12T02:03:34.617Z,0
2017-01-12T02:04:15.178Z,0
2017-01-12T02:04:55.738Z,0
2017-01-12T02:05:36.272Z,0
2017-01-12T02:06:16.812Z,0
2017-01-12T02:06:57.403Z,0
2017-01-12T02:07:37.950Z,0
2017-01-12T02:08:18.497Z,0
2017-01-12T02:08:59.120Z,0
2017-01-12T02:09:39.667Z,0
2017-01-12T02:10:20.235Z,0
2017-01-12T02:11:00.723Z,0
2017-01-12T02:11:41.272Z,0
2017-01-12T02:12:21.832Z,0
2017-01-12T02:13:02.397Z,0
2017-01-12T02:13:42.915Z,0
2017-01-12T02:17:29.861Z,0
2017-01-12T02:18:10.161Z,0
2017-01-12T02:18:50.732Z,0
2017-01-12T02:19:31.255Z,0
2017-01-12T02:20:11.787Z,0
2017-01-12T02:20:52.295Z,0
2017-01-12T02:21:32.814Z,0
2017-01-12T02:22:13.305Z,0
2017-01-12T02:22:53.843Z,0
2017-01-12T02:23:34.350Z,0
2017-01-12T02:24:14.892Z,0
2017-01-12T02:24:55.388Z,0
2017-01-12T02:25:35.930Z,0
2017-01-12T02:26:16.446Z,0
2017-01-12T02:26:56.953Z,0
2017-01-12T02:27:37.478Z,0
2017-01-12T02:28:18.043Z,0
2017-01-12T02:28:58.534Z,0
2017-01-12T02:29:39.017Z,0
2017-01-12T02:30:19.569Z,0
2017-01-12T02:31:00.101Z,0
2017-01-12T02:31:40.584Z,0
2017-01-12T02:32:21.130Z,0
2017-01-12T02:33:01.670Z,0
2017-01-12T02:33:42.194Z,0
2017-01-12T02:34:22.738Z,0
2017-01-12T02:35:03.325Z,0
2017-01-12T02:35:43.811Z,0
2017-01-12T02:36:24.381Z,0
2017-01-12T02:37:04.877Z,0
2017-01-12T02:37:45.372Z,0
2017-01-12T02:38:25.962Z,0
2017-01-12T02:39:06.450Z,0
2017-01-12T02:39:46.961Z,0
2017-01-12T02:40:27.506Z,0
2017-01-12T02:41:08.046Z,0
2017-01-12T02:41:48.559Z,0
2017-01-12T02:42:29.087Z,0
2017-01-12T02:43:09.644Z,0
2017-01-12T02:43:50.153Z,0
2017-01-12T02:44:30.709Z,0
2017-01-12T02:45:11.257Z,0
2017-01-12T02:45:51.792Z,0
2017-01-12T02:46:32.278Z,0
2017-01-12T02:47:12.867Z,0
2017-01-12T02:47:53.384Z,0
2017-01-12T02:48:33.868Z,0
2017-01-12T02:49:14.414Z,0
2017-01-12T02:49:54.943Z,0
2017-01-12T02:50:35.493Z,0
2017-01-12T02:51:16.002Z,0
2017-01-12T02:51:56.522Z,0
2017-01-12T02:52:37.058Z,0
2017-01-12T02:53:17.597Z,0
2017-01-12T02:53:58.136Z,0
2017-01-12T02:54:38.723Z,0
2017-01-12T02:55:19.219Z,0
2017-01-12T02:55:59.752Z,0
2017-01-12T02:56:40.313Z,0
2017-01-12T02:57:20.852Z,0
2017-01-12T02:58:01.376Z,0
2017-01-12T02:58:41.955Z,0
2017-01-12T02:59:22.485Z,0
2017-01-12T03:00:03.034Z,0
2017-01-12T03:00:43.598Z,0
2017-01-12T03:01:24.119Z,0
2017-01-12T03:02:04.715Z,0
2017-01-12T03:02:45.289Z,0
2017-01-12T03:03:25.862Z,0
2017-01-12T03:04:06.365Z,0
2017-01-12T03:04:46.906Z,0
2017-01-12T03:05:27.477Z,0
2017-01-12T03:06:08.007Z,0
2017-01-12T03:06:48.516Z,0
2017-01-12T03:07:29.038Z,0
2017-01-12T03:08:09.592Z,0
2017-01-12T03:08:50.140Z,0
2017-01-12T03:09:30.683Z,0
2017-01-12T03:10:11.214Z,0
2017-01-12T03:10:51.744Z,0
2017-01-12T03:11:32.256Z,0
2017-01-12T03:12:12.782Z,0
2017-01-12T03:12:53.398Z,0
2017-01-12T03:13:33.924Z,0
2017-01-12T03:14:14.453Z,0
2017-01-12T03:14:54.978Z,0
2017-01-12T03:15:35.515Z,0
2017-01-12T03:16:16.060Z,0
2017-01-12T03:16:56.583Z,0
2017-01-12T03:17:37.102Z,0
2017-01-12T03:18:17.633Z,0
2017-01-12T03:18:58.136Z,0
2017-01-12T03:19:38.690Z,0
2017-01-12T03:20:19.218Z,0
2017-01-12T03:20:59.773Z,0
2017-01-12T03:21:40.291Z,0
2017-01-12T03:22:20.822Z,0
2017-01-12T03:23:01.385Z,0
2017-01-12T03:23:41.924Z,0
2017-01-12T03:24:22.520Z,0
2017-01-12T03:25:03.021Z,0
2017-01-12T03:25:43.540Z,0
2017-01-12T03:26:24.053Z,0
2017-01-12T03:27:04.600Z,0
2017-01-12T03:27:45.146Z,0
2017-01-12T03:28:25.680Z,0
2017-01-12T03:29:06.240Z,0
2017-01-12T03:29:46.796Z,0
2017-01-12T03:30:27.336Z,0
2017-01-12T03:31:07.890Z,0
2017-01-12T03:31:48.462Z,0
2017-01-12T03:32:28.977Z,0
2017-01-12T03:33:09.514Z,0
2017-01-12T03:33:50.053Z,0
2017-01-12T03:34:30.605Z,0
2017-01-12T03:35:11.170Z,0
2017-01-12T03:35:51.675Z,0
2017-01-12T03:36:32.209Z,0
2017-01-12T03:37:12.818Z,0
2017-01-12T03:37:53.321Z,0
2017-01-12T03:38:33.835Z,0
2017-01-12T03:39:14.372Z,0
2017-01-12T03:39:54.876Z,0
2017-01-12T03:40:35.460Z,0
2017-01-12T03:41:16.043Z,0
2017-01-12T03:41:56.542Z,0
2017-01-12T03:42:37.036Z,0
2017-01-12T03:43:17.638Z,0
2017-01-12T03:43:58.150Z,0
2017-01-12T03:44:38.735Z,0
2017-01-12T03:45:19.230Z,0
2017-01-12T03:45:59.849Z,0
2017-01-12T03:46:40.380Z,0
2017-01-12T03:47:20.899Z,0
2017-01-12T03:48:01.459Z,0
2017-01-12T03:48:42.006Z,0
2017-01-12T03:49:22.508Z,0
2017-01-12T03:50:03.041Z,0
2017-01-12T03:50:43.587Z,0
2017-01-12T03:51:24.102Z,0
2017-01-12T03:52:04.627Z,0
2017-01-12T03:52:45.161Z,0
2017-01-12T03:53:25.708Z,0
2017-01-12T03:54:06.249Z,0
2017-01-12T03:54:46.771Z,0
2017-01-12T03:55:27.290Z,0
2017-01-12T03:56:07.827Z,0
2017-01-12T03:56:48.414Z,0
2017-01-12T03:57:28.890Z,0
2017-01-12T03:58:09.450Z,0
2017-01-12T03:58:49.948Z,0
2017-01-12T03:59:30.468Z,0
2017-01-12T04:00:11.005Z,0
2017-01-12T04:00:51.545Z,0
2017-01-12T04:01:32.093Z,0
2017-01-12T04:02:12.618Z,0
2017-01-12T04:02:53.146Z,0
2017-01-12T04:03:33.705Z,0
2017-01-12T04:04:14.247Z,0
2017-01-12T04:04:54.746Z,0
2017-01-12T04:05:35.284Z,0
2017-01-12T04:06:15.844Z,0
2017-01-12T04:06:56.401Z,0
2017-01-12T04:07:36.971Z,0
2017-01-12T04:08:17.486Z,0
2017-01-12T04:08:58.001Z,0
2017-01-12T04:09:38.547Z,0
2017-01-12T04:10:19.120Z,0
2017-01-12T04:10:59.627Z,0
2017-01-12T04:11:40.198Z,0
2017-01-12T04:12:20.741Z,0
2017-01-12T04:13:01.212Z,0
2017-01-12T04:13:41.788Z,0
2017-01-12T04:14:22.334Z,0
2017-01-12T04:15:02.941Z,0
2017-01-12T04:15:43.411Z,0
2017-01-12T04:16:23.938Z,0
2017-01-12T04:17:04.471Z,0
2017-01-12T04:17:45.040Z,0
2017-01-12T04:18:25.547Z,0
2017-01-12T04:19:06.111Z,0
2017-01-12T04:19:46.645Z,0
2017-01-12T04:20:27.174Z,0
2017-01-12T04:21:07.703Z,0
2017-01-12T04:21:48.209Z,0
2017-01-12T04:22:28.769Z,0
2017-01-12T04:23:09.255Z,0
2017-01-12T04:23:49.804Z,0
2017-01-12T04:24:30.323Z,0
2017-01-12T04:25:10.839Z,0
2017-01-12T04:25:51.392Z,0
2017-01-12T04:26:31.913Z,0
2017-01-12T04:27:12.423Z,0
2017-01-12T04:27:52.990Z,0
2017-01-12T04:28:33.499Z,0
2017-01-12T04:29:14.029Z,0
2017-01-12T04:29:54.552Z,0
2017-01-12T04:30:35.102Z,0
2017-01-12T04:31:15.643Z,0
2017-01-12T04:31:56.173Z,0
2017-01-12T04:32:36.696Z,0
2017-01-12T04:33:17.201Z,0
2017-01-12T04:33:57.741Z,0
2017-01-12T04:34:38.254Z,0
2017-01-12T04:35:18.938Z,0
2017-01-12T04:35:59.435Z,0
2017-01-12T04:36:39.944Z,0
2017-01-12T04:37:20.508Z,0
2017-01-12T04:38:01.050Z,0
2017-01-12T04:38:41.581Z,0
2017-01-12T04:39:22.152Z,0
2017-01-12T04:40:02.682Z,0
2017-01-12T04:40:43.191Z,0
2017-01-12T04:41:23.755Z,0
2017-01-12T04:42:04.237Z,0
2017-01-12T04:42:44.755Z,0
2017-01-12T04:43:25.266Z,0
2017-01-12T04:44:05.769Z,0
2017-01-12T04:44:46.341Z,0
2017-01-12T04:45:26.851Z,0
2017-01-12T04:46:07.405Z,0
2017-01-12T04:46:47.923Z,0
2017-01-12T04:47:28.466Z,0
2017-01-12T04:48:09.021Z,0
2017-01-12T04:48:49.576Z,0
2017-01-12T04:49:30.149Z,0
2017-01-12T04:50:10.660Z,0
2017-01-12T04:50:51.185Z,0
2017-01-12T04:51:31.701Z,0
2017-01-12T04:52:12.226Z,0
2017-01-12T04:52:52.734Z,0
2017-01-12T04:53:33.298Z,0
2017-01-12T04:54:13.811Z,0
2017-01-12T04:54:54.336Z,0
2017-01-12T04:55:34.888Z,0
2017-01-12T04:56:15.433Z,0
2017-01-12T04:56:55.949Z,0
2017-01-12T04:57:36.449Z,0
2017-01-12T04:58:16.972Z,0
2017-01-12T04:58:57.520Z,0
2017-01-12T04:59:38.058Z,0
2017-01-12T05:00:18.593Z,0
2017-01-12T05:00:59.168Z,0
2017-01-12T05:01:39.725Z,0
2017-01-12T05:02:20.271Z,0
2017-01-12T05:03:00.808Z,0
2017-01-12T05:03:41.287Z,0
2017-01-12T05:04:21.827Z,0
2017-01-12T05:05:02.388Z,0
2017-01-12T05:05:42.938Z,0
2017-01-12T05:06:23.470Z,0
2017-01-12T05:07:03.982Z,0
2017-01-12T05:07:44.521Z,0
2017-01-12T05:08:25.066Z,0
2017-01-12T05:09:05.604Z,0
2017-01-12T05:09:46.148Z,0
2017-01-12T05:10:26.620Z,0
2017-01-12T05:11:07.180Z,0
2017-01-12T05:11:47.702Z,0
2017-01-12T05:12:28.286Z,0
2017-01-12T05:13:08.788Z,0
2017-01-12T05:13:49.377Z,0
2017-01-12T05:14:29.920Z,0
2017-01-12T05:15:10.448Z,0
2017-01-12T05:15:50.982Z,0
2017-01-12T05:16:31.500Z,0
2017-01-12T05:17:12.020Z,0
2017-01-12T05:17:52.630Z,0
2017-01-12T05:18:33.125Z,0
2017-01-12T05:19:13.665Z,0
2017-01-12T05:19:54.210Z,0
2017-01-12T05:20:34.758Z,0
2017-01-12T05:21:15.323Z,0
2017-01-12T05:21:55.867Z,0
2017-01-12T05:22:36.419Z,0
2017-01-12T05:23:16.954Z,0
2017-01-12T05:23:57.487Z,0
2017-01-12T05:24:38.005Z,0
2017-01-12T05:25:18.533Z,0
2017-01-12T05:25:59.104Z,0
2017-01-12T05:26:39.633Z,0
2017-01-12T05:27:20.170Z,0
2017-01-12T05:28:00.712Z,0
2017-01-12T05:28:41.229Z,0
2017-01-12T05:29:21.837Z,0
2017-01-12T05:30:02.339Z,0
2017-01-12T05:30:42.890Z,0
2017-01-12T05:31:23.482Z,0
2017-01-12T05:32:04.025Z,0
2017-01-12T05:32:44.561Z,0
2017-01-12T05:33:25.115Z,0
2017-01-12T05:34:05.586Z,0
2017-01-12T05:34:46.132Z,0
2017-01-12T05:35:26.655Z,0
2017-01-12T05:36:07.193Z,0
2017-01-12T05:36:47.762Z,0
2017-01-12T05:37:28.288Z,0
2017-01-12T05:38:08.784Z,0
2017-01-12T05:38:49.319Z,0
2017-01-12T05:39:29.863Z,0
2017-01-12T05:40:10.360Z,0
2017-01-12T05:40:50.859Z,0
2017-01-12T05:41:31.412Z,0
2017-01-12T05:42:11.998Z,0
2017-01-12T05:42:52.502Z,0
2017-01-12T05:43:33.076Z,0
2017-01-12T05:44:13.578Z,0
2017-01-12T05:44:54.133Z,0
2017-01-12T05:45:34.649Z,0
2017-01-12T05:46:15.181Z,0
2017-01-12T05:46:55.715Z,0
2017-01-12T05:47:36.272Z,0
2017-01-12T05:48:16.773Z,0
2017-01-12T05:48:57.316Z,0
2017-01-12T05:49:37.811Z,0
2017-01-12T05:50:18.335Z,0
2017-01-12T05:50:58.895Z,0
2017-01-12T05:51:39.409Z,0
2017-01-12T05:52:19.925Z,0
2017-01-12T05:53:00.497Z,0
2017-01-12T05:53:41.025Z,0
2017-01-12T05:54:21.565Z,0
2017-01-12T05:55:02.100Z,0
2017-01-12T05:55:42.667Z,0
2017-01-12T05:56:23.186Z,0
2017-01-12T05:57:03.734Z,0
2017-01-12T05:57:44.301Z,0
2017-01-12T05:58:24.821Z,0
2017-01-12T05:59:05.346Z,0
2017-01-12T05:59:45.890Z,0
2017-01-12T06:00:26.429Z,0
2017-01-12T06:01:07.008Z,0
2017-01-12T06:01:47.581Z,0
2017-01-12T06:02:28.091Z,0
2017-01-12T06:03:08.608Z,0
2017-01-12T06:03:49.145Z,0
2017-01-12T06:04:29.661Z,0
2017-01-12T06:05:10.205Z,0
2017-01-12T06:05:50.750Z,0
2017-01-12T06:06:31.259Z,0
2017-01-12T06:07:11.800Z,0
2017-01-12T06:07:52.380Z,0
2017-01-12T06:08:32.896Z,0
2017-01-12T06:09:14.110Z,0
2017-01-12T06:09:54.690Z,0
2017-01-12T06:10:35.196Z,0
2017-01-12T06:11:15.749Z,0
2017-01-12T06:11:56.287Z,0
2017-01-12T06:12:36.829Z,0
2017-01-12T06:13:17.381Z,0
2017-01-12T06:13:57.897Z,0
2017-01-12T06:14:38.429Z,0
2017-01-12T06:15:18.971Z,0
2017-01-12T06:15:59.507Z,0
2017-01-12T06:16:40.040Z,0
2017-01-12T06:17:20.600Z,0
2017-01-12T06:18:01.123Z,0
2017-01-12T06:18:41.668Z,0
2017-01-12T06:19:22.242Z,0
2017-01-12T06:20:02.744Z,0
2017-01-12T06:20:43.303Z,0
2017-01-12T06:21:24.593Z,0
2017-01-12T06:22:05.182Z,0
2017-01-12T06:22:45.676Z,0
2017-01-12T06:23:26.221Z,0
2017-01-12T06:24:06.754Z,0
2017-01-12T06:24:47.304Z,0
2017-01-12T06:25:27.848Z,0
2017-01-12T06:26:08.395Z,0
2017-01-12T06:26:48.946Z,0
2017-01-12T06:27:29.456Z,0
2017-01-12T06:28:09.986Z,0
2017-01-12T06:28:50.499Z,0
2017-01-12T06:29:31.040Z,0
2017-01-12T06:30:11.573Z,0
2017-01-12T06:30:52.137Z,0
2017-01-12T06:31:32.779Z,0
2017-01-12T06:32:13.229Z,0
2017-01-12T06:32:53.780Z,0
2017-01-12T06:33:34.296Z,0
2017-01-12T06:34:14.818Z,0
2017-01-12T06:34:55.367Z,0
2017-01-12T06:35:35.903Z,0
2017-01-12T06:36:16.392Z,0
2017-01-12T06:36:56.967Z,0
2017-01-12T06:37:37.493Z,0
2017-01-12T06:38:18.045Z,0
2017-01-12T06:38:58.635Z,0
2017-01-12T06:39:39.156Z,0
2017-01-12T06:40:19.662Z,0
2017-01-12T06:41:00.210Z,0
2017-01-12T06:41:43.111Z,0
2017-01-12T06:42:23.658Z,0
2017-01-12T06:43:04.203Z,0
2017-01-12T06:43:44.755Z,0
2017-01-12T06:44:25.315Z,0
2017-01-12T06:45:05.828Z,0
2017-01-12T06:45:46.374Z,0
2017-01-12T06:46:26.870Z,0
2017-01-12T06:47:07.413Z,0
2017-01-12T06:47:47.914Z,0
2017-01-12T06:48:28.476Z,0
2017-01-12T06:49:09.016Z,0
2017-01-12T06:49:49.570Z,0
2017-01-12T06:50:30.076Z,0
2017-01-12T06:51:10.647Z,0
2017-01-12T06:51:51.174Z,0
2017-01-12T06:52:31.775Z,0
2017-01-12T06:53:12.293Z,0
2017-01-12T06:53:52.830Z,0
2017-01-12T06:54:33.347Z,0
2017-01-12T06:55:13.933Z,0
2017-01-12T06:55:54.476Z,0
2017-01-12T06:56:34.999Z,0
2017-01-12T06:57:15.482Z,0
2017-01-12T06:57:56.015Z,0
2017-01-12T06:58:36.551Z,0
2017-01-12T06:59:17.052Z,0
2017-01-12T06:59:57.574Z,0
2017-01-12T07:00:38.076Z,0
2017-01-12T07:01:18.635Z,0
2017-01-12T07:03:31.902Z,0
2017-01-12T07:04:13.398Z,0
2017-01-12T07:04:53.961Z,0
2017-01-12T07:05:34.716Z,0
2017-01-12T07:06:15.296Z,0
2017-01-12T07:06:55.842Z,0
2017-01-12T07:07:36.404Z,0
2017-01-12T07:08:16.958Z,0
2017-01-12T07:08:57.621Z,0
2017-01-12T07:09:38.060Z,0
2017-01-12T07:10:18.576Z,0
2017-01-12T07:10:59.106Z,0
2017-01-12T07:11:39.672Z,0
2017-01-12T07:12:20.218Z,0
2017-01-12T07:13:00.795Z,5
2017-01-12T07:13:41.339Z,5
2017-01-12T07:14:21.872Z,5
2017-01-12T07:15:02.379Z,5
2017-01-12T07:15:42.989Z,5
2017-01-12T07:16:23.518Z,5
2017-01-12T07:17:04.089Z,5
2017-01-12T07:17:44.653Z,5
2017-01-12T07:18:25.226Z,5
2017-01-12T07:19:05.732Z,5
2017-01-12T07:19:46.301Z,5
2017-01-12T07:20:26.870Z,5
2017-01-12T07:21:07.446Z,10
2017-01-12T07:21:47.951Z,10
2017-01-12T07:22:28.492Z,10
2017-01-12T07:23:09.333Z,10
2017-01-12T07:23:50.076Z,15
2017-01-12T07:24:30.736Z,15
2017-01-12T07:25:11.468Z,15
2017-01-12T07:25:52.105Z,15
2017-01-12T07:26:32.700Z,15
2017-01-12T07:27:13.190Z,15
2017-01-12T07:27:53.742Z,20
2017-01-12T07:28:35.194Z,20
2017-01-12T07:29:15.118Z,20
2017-01-12T07:29:56.001Z,20
2017-01-12T07:30:36.478Z,20
2017-01-12T07:31:17.072Z,20
2017-01-12T07:31:57.693Z,20
2017-01-12T07:32:38.347Z,20
2017-01-12T07:33:18.965Z,25
2017-01-12T07:33:59.397Z,25
2017-01-12T07:34:39.954Z,25
2017-01-12T07:35:20.493Z,30
2017-01-12T07:36:01.341Z,30
2017-01-12T07:36:42.408Z,30
2017-01-12T07:37:23.063Z,35
2017-01-12T07:38:04.511Z,35
2017-01-12T07:38:45.101Z,35
2017-01-12T07:39:25.720Z,40
2017-01-12T07:40:06.200Z,40
2017-01-12T07:40:46.770Z,40
2017-01-12T07:41:27.436Z,40
2017-01-12T07:42:08.045Z,40
2017-01-12T07:42:48.483Z,40
2017-01-12T07:43:29.109Z,35
2017-01-12T07:44:09.704Z,30
2017-01-12T07:44:50.535Z,30
2017-01-12T07:45:31.233Z,30
2017-01-12T07:46:11.831Z,35
2017-01-12T07:46:52.496Z,40
2017-01-12T07:47:33.177Z,45
2017-01-12T07:48:13.825Z,50
2017-01-12T07:48:54.485Z,50
2017-01-12T07:49:35.187Z,50
2017-01-12T07:50:15.878Z,55
2017-01-12T07:50:56.453Z,55
2017-01-12T07:51:37.182Z,50
2017-01-12T07:52:17.917Z,50
2017-01-12T07:52:58.785Z,50
2017-01-12T07:53:39.175Z,50
2017-01-12T07:54:19.870Z,50
2017-01-12T07:55:00.396Z,50
2017-01-12T07:55:40.958Z,50
2017-01-12T07:56:21.575Z,50
2017-01-12T07:57:02.091Z,50
2017-01-12T07:57:42.626Z,55
2017-01-12T07:58:23.196Z,55
2017-01-12T07:59:03.773Z,55
2017-01-12T07:59:44.263Z,55
2017-01-12T08:00:24.810Z,60
2017-01-12T08:01:05.374Z,60
2017-01-12T08:01:45.889Z,60
2017-01-12T08:02:26.444Z,60
2017-01-12T08:03:06.983Z,60
2017-01-12T08:03:47.510Z,60
2017-01-12T08:04:28.060Z,60
2017-01-12T08:05:08.601Z,60
2017-01-12T08:05:49.166Z,60
2017-01-12T08:06:29.704Z,60
2017-01-12T08:07:10.193Z,60
2017-01-12T08:07:50.771Z,65
2017-01-12T08:08:31.278Z,65
2017-01-12T08:09:11.811Z,65
2017-01-12T08:09:52.372Z,65
2017-01-12T08:10:32.924Z,65
2017-01-12T08:11:13.470Z,65
2017-01-12T08:11:54.011Z,65
2017-01-12T08:12:35.070Z,70
2017-01-12T08:13:15.785Z,75
2017-01-12T08:13:56.515Z,75
2017-01-12T08:14:37.030Z,80
2017-01-12T08:15:17.592Z,85
2017-01-12T08:15:58.115Z,90
2017-01-12T08:16:38.721Z,95
2017-01-12T08:17:19.251Z,100
2017-01-12T08:17:59.820Z,100
2017-01-12T08:18:40.349Z,105
2017-01-12T08:19:20.933Z,110
2017-01-12T08:20:01.466Z,110
2017-01-12T08:20:42.013Z,110
2017-01-12T08:21:22.504Z,110
2017-01-12T08:22:03.097Z,110
2017-01-12T08:22:43.555Z,105
2017-01-12T08:23:24.078Z,110
2017-01-12T08:24:04.660Z,105
2017-01-12T08:24:46.539Z,100
2017-01-12T08:25:27.182Z,100
2017-01-12T08:26:07.792Z,100
2017-01-12T08:26:48.309Z,100
2017-01-12T08:27:28.850Z,100
2017-01-12T08:28:09.403Z,100
2017-01-12T08:28:49.885Z,100
2017-01-12T08:29:30.438Z,105
2017-01-12T08:30:10.982Z,105
2017-01-12T08:30:51.498Z,100
2017-01-12T08:31:32.017Z,100
2017-01-12T08:32:12.546Z,100
2017-01-12T08:32:53.117Z,95
2017-01-12T08:33:33.612Z,95
2017-01-12T08:34:14.161Z,90
2017-01-12T08:34:54.709Z,90
2017-01-12T08:35:35.313Z,85
2017-01-12T08:36:15.852Z,80
2017-01-12T08:36:56.388Z,80
2017-01-12T08:37:36.916Z,80
2017-01-12T08:38:17.396Z,80
2017-01-12T08:38:57.988Z,80
2017-01-12T08:39:38.547Z,80
2017-01-12T08:40:19.057Z,80
2017-01-12T08:40:59.679Z,80
2017-01-12T08:41:40.280Z,85
2017-01-12T08:42:20.763Z,85
2017-01-12T08:43:01.295Z,90
2017-01-12T08:43:41.835Z,90
2017-01-12T08:44:24.865Z,95
2017-01-12T08:45:05.544Z,90
2017-01-12T08:45:46.422Z,95
2017-01-12T08:49:32.828Z,105
2017-01-12T08:50:13.519Z,105
2017-01-12T08:50:54.279Z,110
2017-01-12T08:51:34.905Z,110
2017-01-12T08:52:15.533Z,110
2017-01-12T08:52:56.257Z,115
2017-01-12T08:53:36.792Z,115
2017-01-12T08:54:17.255Z,115
2017-01-12T08:54:57.885Z,115
2017-01-12T08:55:38.435Z,110
2017-01-12T08:56:19.011Z,110
2017-01-12T08:56:59.545Z,110
2017-01-12T08:57:40.078Z,110
2017-01-12T08:58:20.762Z,105
2017-01-12T08:59:01.323Z,105
2017-01-12T08:59:41.906Z,110
2017-01-12T09:00:22.383Z,110
2017-01-12T09:01:02.942Z,110
2017-01-12T09:01:43.603Z,110
2017-01-12T09:02:24.118Z,110
2017-01-12T09:03:04.956Z,115
2017-01-12T09:03:45.545Z,115
2017-01-12T09:04:26.119Z,115
2017-01-12T09:05:06.696Z,115
2017-01-12T09:05:47.224Z,115
2017-01-12T09:06:27.914Z,115
2017-01-12T09:07:08.510Z,115
2017-01-12T09:07:48.991Z,115
2017-01-12T09:08:29.534Z,115
2017-01-12T09:09:10.194Z,115
2017-01-12T09:09:50.765Z,115
2017-01-12T09:10:31.479Z,115
2017-01-12T09:11:11.976Z,110
2017-01-12T09:11:52.552Z,110
2017-01-12T09:12:33.159Z,105
2017-01-12T09:13:14.194Z,100
2017-01-12T09:13:54.837Z,100
2017-01-12T09:14:35.562Z,100
2017-01-12T09:15:16.082Z,100
2017-01-12T09:15:56.782Z,100
2017-01-12T09:16:37.805Z,100
2017-01-12T09:17:18.386Z,105
2017-01-12T09:17:59.144Z,105
2017-01-12T09:18:39.687Z,105
2017-01-12T09:19:20.190Z,105
2017-01-12T09:20:00.679Z,105
2017-01-12T09:20:41.635Z,105
2017-01-12T09:21:22.115Z,105
2017-01-12T09:22:02.678Z,100
2017-01-12T09:22:43.194Z,100
2017-01-12T09:23:23.973Z,100
2017-01-12T09:24:04.860Z,100
2017-01-12T09:24:45.905Z,100
2017-01-12T09:25:27.554Z,95
2017-01-12T09:26:07.640Z,100
2017-01-12T09:26:48.313Z,100
2017-01-12T09:27:28.711Z,100
2017-01-12T09:28:09.255Z,100
2017-01-12T09:28:50.027Z,100
2017-01-12T09:29:30.503Z,100
2017-01-12T09:30:11.317Z,100
2017-01-12T09:30:51.747Z,100
2017-01-12T09:31:32.389Z,100
2017-01-12T09:32:12.891Z,100
2017-01-12T09:32:53.442Z,100
2017-01-12T09:33:34.024Z,100
2017-01-12T09:34:14.631Z,105
2017-01-12T09:34:55.236Z,105
2017-01-12T09:35:35.914Z,105
2017-01-12T09:36:16.642Z,105
2017-01-12T09:36:57.189Z,105
2017-01-12T09:37:38.329Z,110
2017-01-12T09:38:18.418Z,110
2017-01-12T09:38:59.312Z,110
2017-01-12T09:39:39.913Z,110
2017-01-12T09:40:20.392Z,115
2017-01-12T09:41:01.140Z,115
2017-01-12T09:41:42.432Z,120
2017-01-12T09:42:23.141Z,120
2017-01-12T09:43:03.679Z,120
2017-01-12T09:43:44.280Z,125
2017-01-12T09:44:24.923Z,120
2017-01-12T09:45:05.708Z,120
2017-01-12T09:45:46.602Z,120
2017-01-12T09:46:27.023Z,120
2017-01-12T09:47:08.106Z,120
2017-01-12T09:47:48.578Z,120
2017-01-12T09:48:29.361Z,120
2017-01-12T09:49:10.447Z,120
2017-01-12T09:49:50.980Z,125
2017-01-12T09:50:31.828Z,125
2017-01-12T09:51:12.482Z,130
2017-01-12T09:51:53.282Z,130
2017-01-12T09:52:34.393Z,130
2017-01-12T09:53:15.067Z,125
2017-01-12T09:53:56.126Z,120
2017-01-12T09:54:36.388Z,120
2017-01-12T09:55:17.045Z,115
2017-01-12T09:55:57.486Z,115
2017-01-12T09:56:38.281Z,115
2017-01-12T09:57:18.905Z,110
2017-01-12T09:57:59.441Z,110
2017-01-12T09:58:40.059Z,110
2017-01-12T09:59:20.582Z,110
2017-01-12T10:00:01.131Z,115
2017-01-12T10:00:41.670Z,115
2017-01-12T10:01:22.252Z,120
2017-01-12T10:02:02.796Z,125
2017-01-12T10:02:43.364Z,130
2017-01-12T10:03:23.847Z,130